Superfast Xi — SYCF — position and weather

sailwx.info

Track history (hours):
 
Tides and Currents Weather Stations Pressure Air Temp Water Temp Dewpoint Dewpoint Depression Visibility Wind Speed Wind Dir Waves Ship Positions

Superfast Xi

Last reported at 2016-Jul-24 15:19 UTC. Time now 2016-Jul-24 22:24 UTC.
Position N 43°42' E 013°46'.

Length 200 m; draft 6.6 m.

Type: Passenger vessel. MMSI: 239918000.

Date/timePositionNaut miles runAvg speedWind from/ knotsBaromVisibWave heightAir tempDewpointWater temp
2016-Jul-24 15:19N 43°42' E 013°46'1216.1
2016-Jul-24 14:33N 43°38' E 013°30'6610.8
2016-Jul-24 08:25N 43°10' E 014°53'3126.6
2016-Jul-24 07:15N 42°53' E 015°28'2024.7
2016-Jul-24 06:26N 42°42' E 015°50'104 3.2
2016-Jul-22 22:29N 41°25' E 017°24'2527.6
2016-Jul-22 21:33N 41°41' E 016°58'9227.4
2016-Jul-22 18:12N 42°42' E 015°26'1827.5
2016-Jul-22 17:34N 42°53' E 015°07'2727.1
2016-Jul-22 16:34N 43°10' E 014°38'2727.2
2016-Jul-22 15:34N 43°28' E 014°09'2424.0
2016-Jul-22 14:34N 43°41' E 013°42'9 2.7
2016-Jul-22 11:13N 43°37' E 013°30'1513.3
2016-Jul-22 10:06N 43°40' E 013°50'1727.5
2016-Jul-22 09:29N 43°30' E 014°09'3827.7
2016-Jul-22 08:07N 43°06' E 014°50'3 0.1
2016-Jul-20 17:33N 43°04' E 014°50'2726.9
2016-Jul-20 16:33N 43°21' E 014°22'2726.8
2016-Jul-20 15:33N 43°38' E 013°54'1817.5
2016-Jul-20 14:33N 43°38' E 013°29'1 0.5
2016-Jul-20 12:23N 43°37' E 013°30'0 0.0
2016-Jul-20 11:32N 43°37' E 013°30'3115.8
2016-Jul-20 09:33N 43°31' E 014°13'43023.3
2016-Jul-19 15:05N 38°24' E 020°53'1426.7
2016-Jul-19 14:33N 38°16' E 021°07'41518.8
2016-Jul-18 16:25N 43°10' E 014°41'2427.3
2016-Jul-18 15:33N 43°25' E 014°16'2726.9
2016-Jul-18 14:33N 43°42' E 013°47'15 2.9
2016-Jul-18 09:20N 43°34' E 014°05'2227.7
2016-Jul-18 08:33N 43°22' E 014°29'2727.3
2016-Jul-18 07:34N 43°07' E 015°01'40723.5
2016-Jul-17 14:16N 38°16' E 021°15'14 0.3
2016-Jul-15 13:33N 38°20' E 020°58'  
Track history (hours):
 
Tides and Currents Weather Stations Pressure Air Temp Water Temp Dewpoint Dewpoint Depression Visibility Wind Speed Wind Dir Waves Ship Positions

Superfast Xi

Last reported at 2016-Jul-24 15:19 UTC. Time now 2016-Jul-24 22:24 UTC.
Position N 43°42' E 013°46'.

Length 200 m; draft 6.6 m.

Type: Passenger vessel. MMSI: 239918000.

Date/timePositionNaut miles runAvg speedWind from/ knotsBaromVisibWave heightAir tempDewpointWater temp
2016-Jul-24 15:19N 43°42' E 013°46'1216.1
2016-Jul-24 14:33N 43°38' E 013°30'6610.8
2016-Jul-24 08:25N 43°10' E 014°53'3126.6
2016-Jul-24 07:15N 42°53' E 015°28'2024.7
2016-Jul-24 06:26N 42°42' E 015°50'104 3.2
2016-Jul-22 22:29N 41°25' E 017°24'2527.6
2016-Jul-22 21:33N 41°41' E 016°58'9227.4
2016-Jul-22 18:12N 42°42' E 015°26'1827.5
2016-Jul-22 17:34N 42°53' E 015°07'2727.1
2016-Jul-22 16:34N 43°10' E 014°38'2727.2
2016-Jul-22 15:34N 43°28' E 014°09'2424.0
2016-Jul-22 14:34N 43°41' E 013°42'9 2.7
2016-Jul-22 11:13N 43°37' E 013°30'1513.3
2016-Jul-22 10:06N 43°40' E 013°50'1727.5
2016-Jul-22 09:29N 43°30' E 014°09'3827.7
2016-Jul-22 08:07N 43°06' E 014°50'3 0.1
2016-Jul-20 17:33N 43°04' E 014°50'2726.9
2016-Jul-20 16:33N 43°21' E 014°22'2726.8
2016-Jul-20 15:33N 43°38' E 013°54'1817.5
2016-Jul-20 14:33N 43°38' E 013°29'1 0.5
2016-Jul-20 12:23N 43°37' E 013°30'0 0.0
2016-Jul-20 11:32N 43°37' E 013°30'3115.8
2016-Jul-20 09:33N 43°31' E 014°13'43023.3
2016-Jul-19 15:05N 38°24' E 020°53'1426.7
2016-Jul-19 14:33N 38°16' E 021°07'41518.8
2016-Jul-18 16:25N 43°10' E 014°41'2427.3
2016-Jul-18 15:33N 43°25' E 014°16'2726.9
2016-Jul-18 14:33N 43°42' E 013°47'15 2.9
2016-Jul-18 09:20N 43°34' E 014°05'2227.7
2016-Jul-18 08:33N 43°22' E 014°29'2727.3
2016-Jul-18 07:34N 43°07' E 015°01'40723.5
2016-Jul-17 14:16N 38°16' E 021°15'14 0.3
2016-Jul-15 13:33N 38°20' E 020°58'  

Dump ship's entire track history